createdAt,value
2023-02-19T00:00:18.553Z,101559.91
2023-02-19T00:02:19.983Z,101559.03
2023-02-19T00:04:22.576Z,101559.03
2023-02-19T00:06:25.797Z,101552.94
2023-02-19T00:08:27.245Z,101554.66
2023-02-19T00:10:28.715Z,101552.06
2023-02-19T00:12:30.189Z,101540.69
2023-02-19T00:14:31.694Z,101546.81
2023-02-19T00:16:38.794Z,101545.03
2023-02-19T00:18:41.301Z,101538.91
2023-02-19T00:20:42.768Z,101548.53
2023-02-19T00:22:44.264Z,101549.41
2023-02-19T00:24:47.333Z,101554.66
2023-02-19T00:26:49.901Z,101556.41
2023-02-19T00:28:52.547Z,101556.41
2023-02-19T00:30:54.082Z,101553.78
2023-02-19T00:32:55.615Z,101552.03
2023-02-19T00:34:57.056Z,101555.53
2023-02-19T00:36:58.516Z,101554.66
2023-02-19T00:38:59.990Z,101557.28
2023-02-19T00:41:18.881Z,101548.53
2023-02-19T00:43:20.398Z,101556.38
2023-02-19T00:45:22.170Z,101560.75
2023-02-19T00:47:23.621Z,101555.50
2023-02-19T00:49:25.133Z,101566.00
2023-02-19T00:51:30.247Z,101561.63
2023-02-19T00:53:31.740Z,101558.13
2023-02-19T00:55:33.241Z,101554.59
2023-02-19T00:57:34.679Z,101558.97
2023-02-19T00:59:36.883Z,101564.19
2023-02-19T01:01:38.698Z,101544.97
2023-02-19T01:03:40.594Z,101558.06
2023-02-19T01:05:42.033Z,101542.34
2023-02-19T01:07:43.528Z,101573.78
2023-02-19T01:09:45.051Z,101547.59
2023-02-19T01:11:46.539Z,101542.34
2023-02-19T01:13:48.204Z,101550.19
2023-02-19T01:15:49.827Z,101552.81
2023-02-19T01:17:51.261Z,101558.06
2023-02-19T01:19:53.004Z,101556.28
2023-02-19T01:21:54.423Z,101566.75
2023-02-19T01:23:56.670Z,101558.00
2023-02-19T01:25:58.134Z,101558.00
2023-02-19T01:27:59.593Z,101571.09
2023-02-19T01:30:01.075Z,101557.13
2023-02-19T01:32:02.793Z,101567.59
2023-02-19T01:34:04.820Z,101566.72
2023-02-19T01:36:07.337Z,101568.44
2023-02-19T01:38:08.777Z,101569.28
2023-02-19T01:40:10.472Z,101566.66
2023-02-19T01:42:17.018Z,101568.38
2023-02-19T01:44:18.540Z,101568.38
2023-02-19T01:46:20.074Z,101565.75
2023-02-19T01:48:27.569Z,101573.63
2023-02-19T01:50:32.719Z,101578.84
2023-02-19T01:52:36.879Z,101577.97
2023-02-19T01:54:41.960Z,101582.34
2023-02-19T01:56:46.043Z,101575.34
2023-02-19T01:58:47.855Z,101580.56
2023-02-19T02:00:49.403Z,101576.22
2023-02-19T02:02:54.366Z,101577.97
2023-02-19T02:05:00.223Z,101577.09
2023-02-19T02:07:24.431Z,101578.81
2023-02-19T02:09:46.908Z,101580.56
2023-02-19T02:11:51.491Z,101581.44
2023-02-19T02:13:53.894Z,101584.06
2023-02-19T02:16:21.763Z,101589.28
2023-02-19T02:18:35.649Z,101591.91
2023-02-19T02:21:04.007Z,101588.41
2023-02-19T02:23:20.614Z,101580.56
2023-02-19T02:25:49.395Z,101586.66
2023-02-19T02:28:06.796Z,101586.66
2023-02-19T02:30:23.910Z,101586.66
2023-02-19T02:32:32.043Z,101587.53
2023-02-19T02:34:41.968Z,101583.16
2023-02-19T02:36:47.219Z,101579.66
2023-02-19T02:38:49.921Z,101576.16
2023-02-19T02:40:52.023Z,101579.63
2023-02-19T02:42:58.189Z,101579.63
2023-02-19T02:45:37.222Z,101580.50
2023-02-19T02:47:48.404Z,101579.63
2023-02-19T02:50:05.179Z,101577.00
2023-02-19T02:52:26.691Z,101571.75
2023-02-19T02:54:51.778Z,101568.25
2023-02-19T02:56:55.800Z,101576.97
2023-02-19T02:59:00.865Z,101577.78
2023-02-19T03:01:49.367Z,101580.41
2023-02-19T03:03:57.493Z,101581.28
2023-02-19T03:06:03.989Z,101585.63
2023-02-19T03:08:23.029Z,101596.94
2023-02-19T03:10:30.763Z,101608.25
2023-02-19T03:12:52.561Z,101613.47
2023-02-19T03:15:17.019Z,101621.31
2023-02-19T03:18:00.118Z,101616.03
2023-02-19T03:20:07.679Z,101632.59
2023-02-19T03:22:35.920Z,101625.63
2023-02-19T03:25:18.962Z,101630.84
2023-02-19T03:27:21.913Z,101634.31
2023-02-19T03:29:26.476Z,101636.91
2023-02-19T03:31:31.542Z,101639.53
2023-02-19T03:33:33.845Z,101633.41
2023-02-19T03:35:41.567Z,101646.50
2023-02-19T03:37:53.101Z,101650.84
2023-02-19T03:39:55.348Z,101658.69
2023-02-19T03:42:17.955Z,101660.44
2023-02-19T03:44:44.911Z,101666.50
2023-02-19T03:47:14.280Z,101675.22
2023-02-19T03:49:40.334Z,101674.31
2023-02-19T03:52:01.981Z,101678.63
2023-02-19T03:54:28.853Z,101681.25
2023-02-19T03:56:48.302Z,101689.09
2023-02-19T03:59:06.829Z,101694.31
2023-02-19T04:01:24.772Z,101692.56
2023-02-19T04:03:49.429Z,101698.63
2023-02-19T04:05:59.210Z,101709.06
2023-02-19T04:08:09.043Z,101709.88
2023-02-19T04:10:11.573Z,101721.19
2023-02-19T04:12:14.978Z,101724.63
2023-02-19T04:14:22.920Z,101732.50
2023-02-19T04:16:28.507Z,101731.63
2023-02-19T04:18:34.492Z,101739.47
2023-02-19T04:20:42.880Z,101745.53
2023-02-19T04:22:44.873Z,101741.16
2023-02-19T04:24:52.387Z,101750.75
2023-02-19T04:26:55.726Z,101754.25
2023-02-19T04:28:57.179Z,101758.59
2023-02-19T04:30:58.628Z,101766.44
2023-02-19T04:33:00.141Z,101762.09
2023-02-19T04:35:01.620Z,101767.31
2023-02-19T04:37:03.217Z,101772.56
2023-02-19T04:39:04.673Z,101771.66
2023-02-19T04:41:06.194Z,101776.00
2023-02-19T04:43:07.750Z,101782.97
2023-02-19T04:45:09.243Z,101782.97
2023-02-19T04:47:10.690Z,101789.94
2023-02-19T04:49:12.153Z,101796.06
2023-02-19T04:51:14.076Z,101793.44
2023-02-19T04:53:15.526Z,101799.53
2023-02-19T04:55:17.465Z,101805.63
2023-02-19T04:57:19.037Z,101796.91
2023-02-19T04:59:20.472Z,101805.63
2023-02-19T05:01:21.992Z,101810.00
2023-02-19T05:03:23.439Z,101814.34
2023-02-19T05:05:24.914Z,101809.13
2023-02-19T05:07:26.391Z,101811.75
2023-02-19T05:09:27.827Z,101813.50
2023-02-19T05:11:29.310Z,101819.63
2023-02-19T05:13:31.256Z,101810.03
2023-02-19T05:15:32.851Z,101830.09
2023-02-19T05:17:34.976Z,101822.25
2023-02-19T05:19:36.468Z,101830.09
2023-02-19T05:21:39.302Z,101831.81
2023-02-19T05:23:41.557Z,101829.19
2023-02-19T05:25:43.073Z,101842.25
2023-02-19T05:27:44.684Z,101851.81
2023-02-19T05:29:46.128Z,101860.50
2023-02-19T05:31:49.052Z,101869.19
2023-02-19T05:33:53.838Z,101873.53
2023-02-19T05:35:56.068Z,101872.66
2023-02-19T05:37:57.543Z,101867.41
2023-02-19T05:39:59.017Z,101879.56
2023-02-19T05:42:00.480Z,101883.91
2023-02-19T05:44:01.949Z,101890.88
2023-02-19T05:46:03.457Z,101895.22
2023-02-19T05:48:06.044Z,101900.44
2023-02-19T05:50:07.759Z,101909.09
2023-02-19T05:52:09.251Z,101907.31
2023-02-19T05:54:10.691Z,101907.31
2023-02-19T05:56:25.088Z,101916.94
2023-02-19T05:58:27.298Z,101920.41
2023-02-19T06:00:28.856Z,101918.66
2023-02-19T06:02:30.335Z,101918.69
2023-02-19T06:04:31.790Z,101918.75
2023-02-19T06:06:33.291Z,101927.50
2023-02-19T06:08:34.733Z,101923.13
2023-02-19T06:10:37.192Z,101928.34
2023-02-19T06:12:39.491Z,101930.09
2023-02-19T06:14:40.928Z,101939.69
2023-02-19T06:16:42.469Z,101933.59
2023-02-19T06:18:44.906Z,101938.84
2023-02-19T06:20:46.390Z,101944.94
2023-02-19T06:22:50.672Z,101963.22
2023-02-19T06:24:52.139Z,101962.31
2023-02-19T06:26:53.618Z,101966.59
2023-02-19T06:28:55.075Z,101976.13
2023-02-19T06:30:58.533Z,101987.44
2023-02-19T06:33:00.044Z,101977.81
2023-02-19T06:35:01.559Z,101984.75
2023-02-19T06:37:03.150Z,101984.72
2023-02-19T06:39:05.647Z,101993.41
2023-02-19T06:41:08.943Z,101999.47
2023-02-19T06:43:10.515Z,101994.19
2023-02-19T06:45:12.013Z,102013.28
2023-02-19T06:47:13.500Z,102021.94
2023-02-19T06:49:15.420Z,102025.41
2023-02-19T06:51:19.420Z,102034.06
2023-02-19T06:53:21.086Z,102040.09
2023-02-19T06:55:22.618Z,102041.84
2023-02-19T06:57:24.095Z,102039.19
2023-02-19T06:59:25.933Z,102040.94
2023-02-19T07:01:28.988Z,102041.81
2023-02-19T07:03:30.500Z,102043.53
2023-02-19T07:05:31.945Z,102047.94
2023-02-19T07:07:33.465Z,102051.47
2023-02-19T07:09:34.907Z,102057.59
2023-02-19T07:11:39.053Z,102058.44
2023-02-19T07:13:40.606Z,102073.16
2023-02-19T07:15:42.084Z,102080.94
2023-02-19T07:17:43.554Z,102068.66
2023-02-19T07:19:45.002Z,102077.34
2023-02-19T07:21:46.508Z,102089.53
2023-02-19T07:23:47.993Z,102095.66
2023-02-19T07:25:49.452Z,102099.22
2023-02-19T07:27:50.893Z,102109.66
2023-02-19T07:29:52.389Z,102114.88
2023-02-19T07:31:54.067Z,102122.84
2023-02-19T07:33:56.087Z,102126.38
2023-02-19T07:35:57.572Z,102129.91
2023-02-19T07:37:59.016Z,102134.25
2023-02-19T07:40:00.555Z,102131.66
2023-02-19T07:42:01.991Z,102136.06
2023-02-19T07:44:03.619Z,102148.25
2023-02-19T07:46:07.007Z,102148.19
2023-02-19T07:48:08.493Z,102154.31
2023-02-19T07:50:10.682Z,102157.81
2023-02-19T07:52:13.330Z,102166.50
2023-02-19T07:54:15.067Z,102164.72
2023-02-19T07:56:17.228Z,102169.06
2023-02-19T07:58:18.729Z,102163.91
2023-02-19T08:00:20.329Z,102163.16
2023-02-19T08:02:40.387Z,102165.00
2023-02-19T08:04:41.906Z,102165.94
2023-02-19T08:06:43.500Z,102160.72
2023-02-19T08:08:44.983Z,102148.63
2023-02-19T08:11:05.068Z,102162.59
2023-02-19T08:13:25.317Z,102158.28
2023-02-19T08:15:26.986Z,102156.56
2023-02-19T08:17:30.205Z,102142.72
2023-02-19T08:19:31.722Z,102142.78
2023-02-19T08:21:34.418Z,102146.25
2023-02-19T08:23:36.518Z,102159.31
2023-02-19T08:25:38.817Z,102158.41
2023-02-19T08:27:40.286Z,102166.28
2023-02-19T08:29:41.804Z,102163.72
2023-02-19T08:31:43.409Z,102157.66
2023-02-19T08:33:44.918Z,102166.41
2023-02-19T08:35:47.189Z,102177.78
2023-02-19T08:37:48.673Z,102189.16
2023-02-19T08:39:50.172Z,102194.41
2023-02-19T08:41:51.622Z,102199.69
2023-02-19T08:43:53.081Z,102204.09
2023-02-19T08:45:55.459Z,102197.97
2023-02-19T08:47:57.023Z,102198.88
2023-02-19T08:49:58.519Z,102185.91
2023-02-19T08:52:00.004Z,102187.81
2023-02-19T08:54:03.197Z,102199.22
2023-02-19T08:56:07.222Z,102202.78
2023-02-19T08:58:10.440Z,102208.97
2023-02-19T09:00:12.909Z,102205.53
2023-02-19T09:02:14.365Z,102211.69
2023-02-19T09:04:15.906Z,102215.16
2023-02-19T09:06:20.133Z,102223.13
2023-02-19T09:08:21.651Z,102238.88
2023-02-19T09:10:23.170Z,102233.63
2023-02-19T09:12:25.436Z,102238.00
2023-02-19T09:14:26.948Z,102234.56
2023-02-19T09:16:28.399Z,102231.03
2023-02-19T09:18:29.904Z,102238.03
2023-02-19T09:20:31.423Z,102250.34
2023-02-19T09:22:33.095Z,102252.22
2023-02-19T09:24:34.631Z,102249.69
2023-02-19T09:26:38.374Z,102260.22
2023-02-19T09:28:41.869Z,102273.34
2023-02-19T09:30:43.617Z,102278.66
2023-02-19T09:32:45.061Z,102284.69
2023-02-19T09:34:46.690Z,102282.16
2023-02-19T09:36:51.855Z,102278.03
2023-02-19T09:38:53.556Z,102291.34
2023-02-19T09:40:57.270Z,102301.81
2023-02-19T09:43:00.922Z,102307.06
2023-02-19T09:45:04.933Z,102322.78
2023-02-19T09:47:15.766Z,102329.78
2023-02-19T09:49:21.245Z,102332.44
2023-02-19T09:51:25.268Z,102330.75
2023-02-19T09:53:33.815Z,102338.69
2023-02-19T09:55:38.966Z,102345.69
2023-02-19T09:57:40.978Z,102348.28
2023-02-19T09:59:47.877Z,102354.41
2023-02-19T10:01:57.487Z,102343.91
2023-02-19T10:03:58.927Z,102363.16
2023-02-19T10:06:11.826Z,102361.47
2023-02-19T10:08:18.823Z,102360.59
2023-02-19T10:10:31.349Z,102360.75
2023-02-19T10:12:34.649Z,102367.78
2023-02-19T10:14:41.744Z,102375.88
2023-02-19T10:16:46.435Z,102380.22
2023-02-19T10:18:48.287Z,102376.81
2023-02-19T10:20:52.106Z,102379.59
2023-02-19T10:23:03.832Z,102371.84
2023-02-19T10:25:05.609Z,102380.72
2023-02-19T10:27:13.781Z,102372.94
2023-02-19T10:29:15.244Z,102371.25
2023-02-19T10:31:23.179Z,102358.97
2023-02-19T10:33:26.089Z,102355.53
2023-02-19T10:35:28.318Z,102358.16
2023-02-19T10:37:29.915Z,102353.00
2023-02-19T10:39:50.738Z,102345.25
2023-02-19T10:41:56.392Z,102354.91
2023-02-19T10:44:21.649Z,102373.41
2023-02-19T10:46:29.742Z,102372.53
2023-02-19T10:48:36.512Z,102380.31
2023-02-19T10:50:39.295Z,102389.84
2023-02-19T10:52:42.396Z,102396.88
2023-02-19T10:54:45.487Z,102404.88
2023-02-19T10:56:47.526Z,102408.56
2023-02-19T10:58:49.088Z,102415.69
2023-02-19T11:01:16.494Z,102418.53
2023-02-19T11:03:22.439Z,102424.81
2023-02-19T11:05:24.356Z,102424.72
2023-02-19T11:07:25.898Z,102428.06
2023-02-19T11:09:34.677Z,102428.94
2023-02-19T11:11:37.485Z,102422.09
2023-02-19T11:13:42.435Z,102432.03
2023-02-19T11:15:44.295Z,102432.28
2023-02-19T11:17:54.011Z,102435.19
2023-02-19T11:19:58.368Z,102429.41
2023-02-19T11:22:01.119Z,102430.50
2023-02-19T11:24:06.063Z,102434.88
2023-02-19T11:26:18.322Z,102431.25
2023-02-19T11:28:26.744Z,102428.56
2023-02-19T11:30:35.587Z,102422.38
2023-02-19T11:32:37.656Z,102417.78
2023-02-19T11:34:39.203Z,102422.03
2023-02-19T11:36:42.074Z,102428.50
2023-02-19T11:38:44.049Z,102419.13
2023-02-19T11:40:59.361Z,102420.13
2023-02-19T11:43:12.824Z,102412.28
2023-02-19T11:45:14.251Z,102407.00
2023-02-19T11:47:27.806Z,102419.25
2023-02-19T11:49:45.893Z,102405.19
2023-02-19T11:51:56.396Z,102405.28
2023-02-19T11:54:09.781Z,102400.03
2023-02-19T11:56:33.672Z,102411.44
2023-02-19T11:59:00.392Z,102397.38
2023-02-19T12:01:30.644Z,102399.09
2023-02-19T12:03:48.021Z,102404.06
2023-02-19T12:06:31.464Z,102407.44
2023-02-19T12:08:50.657Z,102407.09
2023-02-19T12:11:08.732Z,102415.66
2023-02-19T12:13:41.561Z,102418.38
2023-02-19T12:16:01.415Z,102425.59
2023-02-19T12:18:34.848Z,102421.19
2023-02-19T12:20:39.403Z,102433.84
2023-02-19T12:23:02.796Z,102421.97
2023-02-19T12:25:23.908Z,102429.91
2023-02-19T12:27:34.078Z,102429.03
2023-02-19T12:30:13.374Z,102433.38
2023-02-19T12:32:56.649Z,102428.81
2023-02-19T12:35:22.707Z,102431.38
2023-02-19T12:37:52.401Z,102421.72
2023-02-19T12:40:30.136Z,102420.91
2023-02-19T12:43:09.534Z,102423.66
2023-02-19T12:45:38.880Z,102421.06
2023-02-19T12:47:43.348Z,102424.59
2023-02-19T12:49:52.001Z,102422.84
2023-02-19T12:52:03.644Z,102425.50
2023-02-19T12:54:12.849Z,102421.13
2023-02-19T12:56:40.599Z,102422.00
2023-02-19T12:58:55.900Z,102417.59
2023-02-19T13:00:59.804Z,102436.06
2023-02-19T13:03:21.086Z,102432.53
2023-02-19T13:05:41.550Z,102436.06
2023-02-19T13:07:59.338Z,102429.03
2023-02-19T13:10:25.030Z,102429.91
2023-02-19T13:12:31.052Z,102426.41
2023-02-19T13:14:40.457Z,102421.94
2023-02-19T13:16:48.085Z,102418.41
2023-02-19T13:18:57.579Z,102414.88
2023-02-19T13:21:00.101Z,102413.13
2023-02-19T13:23:30.395Z,102414.00
2023-02-19T13:25:56.764Z,102417.50
2023-02-19T13:28:13.062Z,102415.75
2023-02-19T13:30:38.135Z,102421.00
2023-02-19T13:32:39.577Z,102422.78
2023-02-19T13:35:05.661Z,102428.97
2023-02-19T13:37:08.383Z,102428.09
2023-02-19T13:41:20.154Z,102436.00
2023-02-19T13:43:34.865Z,102442.16
2023-02-19T13:45:44.458Z,102449.19
2023-02-19T13:48:09.141Z,102432.47
2023-02-19T13:50:20.074Z,102436.88
2023-02-19T13:52:30.441Z,102438.59
2023-02-19T13:54:36.028Z,102442.09
2023-02-19T13:56:38.740Z,102442.97
2023-02-19T13:58:53.843Z,102440.34
2023-02-19T14:00:55.380Z,102446.47
2023-02-19T14:03:28.524Z,102449.06
2023-02-19T14:05:57.431Z,102459.56
2023-02-19T14:07:58.913Z,102449.91
2023-02-19T14:10:01.842Z,102455.19
2023-02-19T14:12:15.018Z,102457.84
2023-02-19T14:14:22.877Z,102463.06
2023-02-19T14:16:38.069Z,102455.13
2023-02-19T14:18:44.803Z,102455.09
2023-02-19T14:20:46.358Z,102453.31
2023-02-19T14:22:48.852Z,102458.59
2023-02-19T14:24:53.565Z,102446.28
2023-02-19T14:26:57.479Z,102449.72
2023-02-19T14:29:00.714Z,102454.09
2023-02-19T14:31:27.024Z,102454.97
2023-02-19T14:33:32.635Z,102443.53
2023-02-19T14:35:39.105Z,102436.47
2023-02-19T14:37:40.966Z,102418.06
2023-02-19T14:39:44.541Z,102411.03
2023-02-19T14:41:49.691Z,102407.50
2023-02-19T14:43:53.872Z,102408.38
2023-02-19T14:46:04.374Z,102403.97
2023-02-19T14:48:06.890Z,102396.94
2023-02-19T14:50:15.044Z,102389.94
2023-02-19T14:52:30.419Z,102392.56
2023-02-19T14:55:04.025Z,102389.03
2023-02-19T14:57:15.390Z,102387.25
2023-02-19T14:59:19.471Z,102383.72
2023-02-19T15:01:28.377Z,102394.28
2023-02-19T15:03:36.600Z,102390.84
2023-02-19T15:05:38.188Z,102389.94
2023-02-19T15:07:41.935Z,102381.16
2023-02-19T15:09:49.261Z,102388.16
2023-02-19T15:11:51.161Z,102395.97
2023-02-19T15:13:57.560Z,102387.13
2023-02-19T15:15:59.654Z,102393.19
2023-02-19T15:18:03.179Z,102395.81
2023-02-19T15:20:11.179Z,102397.56
2023-02-19T15:22:19.790Z,102396.69
2023-02-19T15:24:21.865Z,102406.31
2023-02-19T15:26:46.899Z,102402.00
2023-02-19T15:28:58.484Z,102402.91
2023-02-19T15:30:59.976Z,102401.22
2023-02-19T15:33:01.508Z,102393.34
2023-02-19T15:35:04.668Z,102399.47
2023-02-19T15:37:09.600Z,102406.50
2023-02-19T15:39:21.563Z,102410.81
2023-02-19T15:41:25.923Z,102415.13
2023-02-19T15:43:33.303Z,102412.47
2023-02-19T15:45:42.178Z,102415.94
2023-02-19T15:47:51.639Z,102407.97
2023-02-19T15:50:23.818Z,102402.69
2023-02-19T15:52:49.014Z,102414.84
2023-02-19T15:55:18.527Z,102419.22
2023-02-19T15:57:25.975Z,102420.88
2023-02-19T15:59:30.381Z,102426.97
2023-02-19T16:01:41.215Z,102423.44
2023-02-19T16:03:43.070Z,102430.41
2023-02-19T16:05:45.328Z,102434.78
2023-02-19T16:07:46.893Z,102429.47
2023-02-19T16:09:48.384Z,102437.31
2023-02-19T16:11:53.502Z,102438.16
2023-02-19T16:14:16.684Z,102436.41
2023-02-19T16:16:35.284Z,102433.75
2023-02-19T16:18:37.253Z,102429.31
2023-02-19T16:20:38.820Z,102430.19
2023-02-19T16:22:42.326Z,102422.28
2023-02-19T16:24:50.236Z,102426.59
2023-02-19T16:26:51.742Z,102430.97
2023-02-19T16:28:54.118Z,102431.81
2023-02-19T16:31:00.959Z,102431.78
2023-02-19T16:33:22.030Z,102431.72
2023-02-19T16:35:44.957Z,102443.91
2023-02-19T16:37:58.288Z,102454.38
2023-02-19T16:40:08.546Z,102452.53
2023-02-19T16:42:14.446Z,102460.38
2023-02-19T16:44:25.147Z,102451.63
2023-02-19T16:46:26.726Z,102449.78
2023-02-19T16:48:28.433Z,102451.50
2023-02-19T16:50:29.917Z,102458.47
2023-02-19T16:52:31.577Z,102454.06
2023-02-19T16:54:33.029Z,102456.63
2023-02-19T16:56:34.482Z,102459.19
2023-02-19T16:58:37.175Z,102455.63
2023-02-19T17:00:40.357Z,102456.53
2023-02-19T17:02:41.877Z,102454.72
2023-02-19T17:04:43.719Z,102451.22
2023-02-19T17:06:46.631Z,102449.44
2023-02-19T17:08:48.143Z,102452.88
2023-02-19T17:10:49.617Z,102454.59
2023-02-19T17:12:52.682Z,102455.44
2023-02-19T17:14:54.252Z,102453.59
2023-02-19T17:16:55.705Z,102450.91
2023-02-19T17:18:58.776Z,102458.72
2023-02-19T17:21:09.491Z,102463.03
2023-02-19T17:23:11.405Z,102456.88
2023-02-19T17:25:12.886Z,102455.97
2023-02-19T17:27:14.392Z,102455.91
2023-02-19T17:29:18.269Z,102455.84
2023-02-19T17:31:19.846Z,102454.06
2023-02-19T17:33:21.377Z,102454.88
2023-02-19T17:35:23.224Z,102461.88
2023-02-19T17:37:24.669Z,102470.56
2023-02-19T17:39:27.767Z,102473.13
2023-02-19T17:41:29.407Z,102472.16
2023-02-19T17:43:30.898Z,102468.59
2023-02-19T17:45:33.453Z,102480.78
2023-02-19T17:47:34.933Z,102476.34
2023-02-19T17:49:36.476Z,102480.69
2023-02-19T17:51:37.948Z,102485.91
2023-02-19T17:53:39.487Z,102488.44
2023-02-19T17:55:40.930Z,102489.25
2023-02-19T17:57:42.384Z,102485.72
2023-02-19T17:59:43.843Z,102490.06
2023-02-19T18:01:46.202Z,102492.69
2023-02-19T18:03:47.734Z,102501.38
2023-02-19T18:05:49.224Z,102507.47
2023-02-19T18:07:51.076Z,102504.88
2023-02-19T18:09:52.590Z,102499.59
2023-02-19T18:11:54.226Z,102502.22
2023-02-19T18:13:56.212Z,102505.72
2023-02-19T18:15:58.187Z,102503.94
2023-02-19T18:17:59.628Z,102507.44
2023-02-19T18:20:01.603Z,102503.13
2023-02-19T18:22:04.657Z,102501.34
2023-02-19T18:24:07.601Z,102500.53
2023-02-19T18:26:11.119Z,102499.66
2023-02-19T18:28:12.668Z,102498.81
2023-02-19T18:30:18.852Z,102496.22
2023-02-19T18:32:24.844Z,102493.56
2023-02-19T18:34:26.303Z,102503.16
2023-02-19T18:36:27.758Z,102496.09
2023-02-19T18:38:29.261Z,102492.56
2023-02-19T18:40:30.701Z,102495.19
2023-02-19T18:42:32.231Z,102496.94
2023-02-19T18:44:33.783Z,102488.19
2023-02-19T18:46:35.303Z,102486.47
2023-02-19T18:48:37.335Z,102480.31
2023-02-19T18:50:38.779Z,102481.16
2023-02-19T18:52:40.293Z,102479.38
2023-02-19T18:54:43.232Z,102467.19
2023-02-19T18:56:46.245Z,102469.78
2023-02-19T18:58:50.239Z,102470.63
2023-02-19T19:00:52.029Z,102472.34
2023-02-19T19:02:59.456Z,102473.22
2023-02-19T19:05:01.059Z,102477.59
2023-02-19T19:07:03.501Z,102476.72
2023-02-19T19:09:05.422Z,102487.19
2023-02-19T19:11:06.860Z,102484.56
2023-02-19T19:13:08.317Z,102488.91
2023-02-19T19:15:09.884Z,102493.28
2023-02-19T19:17:11.509Z,102488.88
2023-02-19T19:19:13.962Z,102478.41
2023-02-19T19:21:15.916Z,102481.88
2023-02-19T19:23:17.415Z,102475.69
2023-02-19T19:25:20.275Z,102477.44
2023-02-19T19:27:21.752Z,102473.91
2023-02-19T19:29:23.590Z,102474.75
2023-02-19T19:31:25.446Z,102471.22
2023-02-19T19:33:28.020Z,102479.97
2023-02-19T19:35:29.795Z,102472.13
2023-02-19T19:37:31.328Z,102466.88
2023-02-19T19:39:32.762Z,102474.72
2023-02-19T19:41:34.188Z,102472.13
2023-02-19T19:43:35.731Z,102476.50
2023-02-19T19:45:37.280Z,102481.75
2023-02-19T19:47:38.802Z,102473.03
2023-02-19T19:49:41.119Z,102468.63
2023-02-19T19:51:42.594Z,102473.88
2023-02-19T19:53:47.343Z,102476.56
2023-02-19T19:55:48.937Z,102470.44
2023-02-19T19:57:50.449Z,102474.78
2023-02-19T19:59:52.105Z,102473.91
2023-02-19T20:02:01.736Z,102470.41
2023-02-19T20:04:03.557Z,102462.50
2023-02-19T20:06:05.340Z,102455.56
2023-02-19T20:08:06.828Z,102448.53
2023-02-19T20:10:11.376Z,102450.25
2023-02-19T20:12:12.942Z,102452.88
2023-02-19T20:14:15.948Z,102437.13
2023-02-19T20:16:23.962Z,102443.25
2023-02-19T20:18:26.596Z,102443.25
2023-02-19T20:20:28.501Z,102433.63
2023-02-19T20:22:29.996Z,102435.34
2023-02-19T20:24:31.707Z,102444.06
2023-02-19T20:26:33.217Z,102441.41
2023-02-19T20:28:34.724Z,102444.03
2023-02-19T20:30:37.184Z,102451.00
2023-02-19T20:32:38.688Z,102452.75
2023-02-19T20:34:40.905Z,102445.81
2023-02-19T20:36:43.640Z,102450.16
2023-02-19T20:38:45.088Z,102451.91
2023-02-19T20:40:46.657Z,102451.88
2023-02-19T20:42:48.100Z,102447.50
2023-02-19T20:44:49.645Z,102450.94
2023-02-19T20:46:52.683Z,102449.16
2023-02-19T20:48:54.184Z,102450.91
2023-02-19T20:51:00.041Z,102454.41
2023-02-19T20:53:01.488Z,102450.88
2023-02-19T20:55:03.361Z,102447.34
2023-02-19T20:57:05.854Z,102452.56
2023-02-19T20:59:07.337Z,102453.44
2023-02-19T21:01:09.218Z,102449.03
2023-02-19T21:03:11.620Z,102452.44
2023-02-19T21:05:13.540Z,102450.63
2023-02-19T21:07:15.094Z,102453.16
2023-02-19T21:09:16.552Z,102458.34
2023-02-19T21:11:18.044Z,102452.25
2023-02-19T21:13:19.574Z,102447.78
2023-02-19T21:15:21.103Z,102451.25
2023-02-19T21:17:22.551Z,102446.84
2023-02-19T21:19:24.071Z,102446.88
2023-02-19T21:21:26.505Z,102453.88
2023-02-19T21:23:27.937Z,102449.47
2023-02-19T21:25:31.425Z,102454.72
2023-02-19T21:27:32.861Z,102447.75
2023-02-19T21:29:34.343Z,102450.31
2023-02-19T21:31:44.231Z,102444.22
2023-02-19T21:33:45.774Z,102438.16
2023-02-19T21:35:47.210Z,102442.53
2023-02-19T21:37:48.692Z,102423.34
2023-02-19T21:39:50.252Z,102412.91
2023-02-19T21:41:51.723Z,102403.38
2023-02-19T21:43:56.812Z,102406.91
2023-02-19T21:45:58.300Z,102406.06
2023-02-19T21:47:59.813Z,102399.13
2023-02-19T21:50:01.267Z,102388.66
2023-02-19T21:52:02.715Z,102386.03
2023-02-19T21:54:06.031Z,102376.47
2023-02-19T21:56:07.691Z,102376.50
2023-02-19T21:58:10.035Z,102373.88
2023-02-19T22:00:12.136Z,102362.53
2023-02-19T22:02:13.646Z,102357.31
2023-02-19T22:04:17.743Z,102368.66
2023-02-19T22:06:22.730Z,102378.28
2023-02-19T22:08:24.198Z,102372.19
2023-02-19T22:10:25.677Z,102382.69
2023-02-19T22:12:27.130Z,102389.69
2023-02-19T22:14:28.567Z,102396.72
2023-02-19T22:16:30.072Z,102399.34
2023-02-19T22:18:31.545Z,102408.13
2023-02-19T22:20:34.632Z,102403.81
2023-02-19T22:22:36.093Z,102408.22
2023-02-19T22:24:37.660Z,102410.00
2023-02-19T22:26:39.147Z,102419.63
2023-02-19T22:28:40.630Z,102424.06
2023-02-19T22:30:42.926Z,102417.94
2023-02-19T22:32:44.435Z,102417.13
2023-02-19T22:34:45.938Z,102420.63
2023-02-19T22:36:47.471Z,102409.25
2023-02-19T22:38:49.676Z,102410.16
2023-02-19T22:40:51.118Z,102410.19
2023-02-19T22:42:52.852Z,102425.94
2023-02-19T22:44:54.341Z,102419.00
2023-02-19T22:46:56.841Z,102417.28
2023-02-19T22:48:58.845Z,102413.75
2023-02-19T22:51:02.333Z,102412.91
2023-02-19T22:53:03.768Z,102415.53
2023-02-19T22:55:05.477Z,102401.47
2023-02-19T22:57:07.026Z,102406.78
2023-02-19T22:59:08.500Z,102412.03
2023-02-19T23:01:11.939Z,102412.09
2023-02-19T23:03:14.391Z,102409.50
2023-02-19T23:05:16.579Z,102410.41
2023-02-19T23:07:18.027Z,102398.19
2023-02-19T23:09:26.694Z,102410.38
2023-02-19T23:11:31.531Z,102409.56
2023-02-19T23:13:32.965Z,102396.47
2023-02-19T23:15:34.491Z,102391.22
2023-02-19T23:17:36.071Z,102397.34
2023-02-19T23:19:37.972Z,102383.34
2023-02-19T23:21:41.453Z,102396.47
2023-02-19T23:23:44.114Z,102383.38
2023-02-19T23:25:45.577Z,102385.13
2023-02-19T23:27:47.004Z,102384.28
2023-02-19T23:29:48.442Z,102389.53
2023-02-19T23:31:50.101Z,102386.00
2023-02-19T23:33:51.622Z,102375.53
2023-02-19T23:35:53.160Z,102369.41
2023-02-19T23:37:55.798Z,102360.66
2023-02-19T23:39:57.262Z,102362.44
2023-02-19T23:41:58.741Z,102362.44
2023-02-19T23:44:00.186Z,102357.19
2023-02-19T23:46:01.857Z,102344.94
2023-02-19T23:48:03.609Z,102354.59
2023-02-19T23:50:05.525Z,102346.72
2023-02-19T23:52:07.446Z,102347.59
2023-02-19T23:54:09.712Z,102350.22
2023-02-19T23:56:11.611Z,102336.19
2023-02-19T23:58:13.659Z,102334.44
